createdAt,value
2022-11-09T00:01:29.378Z,100392.35
2022-11-09T00:04:00.099Z,100395.34
2022-11-09T00:06:29.609Z,100391.90
2022-11-09T00:09:02.649Z,100394.33
2022-11-09T00:11:34.396Z,100391.41
2022-11-09T00:14:02.487Z,100390.70
2022-11-09T00:16:30.741Z,100387.14
2022-11-09T00:18:58.958Z,100390.55
2022-11-09T00:21:27.356Z,100386.74
2022-11-09T00:23:55.557Z,100384.58
2022-11-09T00:26:24.175Z,100385.48
2022-11-09T00:28:52.736Z,100383.08
2022-11-09T00:31:22.598Z,100384.69
2022-11-09T00:33:56.861Z,100381.37
2022-11-09T00:36:27.260Z,100383.51
2022-11-09T00:39:01.203Z,100383.02
2022-11-09T00:41:29.458Z,100385.18
2022-11-09T00:43:57.637Z,100378.92
2022-11-09T00:46:26.449Z,100380.41
2022-11-09T00:48:56.314Z,100379.61
2022-11-09T00:51:24.525Z,100379.46
2022-11-09T00:53:55.120Z,100379.15
2022-11-09T00:56:23.591Z,100375.13
2022-11-09T00:58:58.153Z,100376.95
2022-11-09T01:01:26.377Z,100378.11
2022-11-09T01:03:54.494Z,100378.42
2022-11-09T01:06:26.003Z,100377.64
2022-11-09T01:08:54.481Z,100377.73
2022-11-09T01:11:23.851Z,100374.23
2022-11-09T01:13:52.308Z,100371.65
2022-11-09T01:16:24.029Z,100371.19
2022-11-09T01:18:56.958Z,100372.33
2022-11-09T01:21:26.564Z,100372.98
2022-11-09T01:23:55.862Z,100371.05
2022-11-09T01:26:24.676Z,100371.54
2022-11-09T01:28:52.875Z,100372.09
2022-11-09T01:31:22.261Z,100370.98
2022-11-09T01:33:50.587Z,100370.66
2022-11-09T01:36:21.779Z,100369.43
2022-11-09T01:38:50.580Z,100366.83
2022-11-09T01:41:23.500Z,100366.70
2022-11-09T01:44:11.642Z,100364.36
2022-11-09T01:46:52.258Z,100364.59
2022-11-09T01:49:47.186Z,100357.99
2022-11-09T01:52:38.241Z,100354.70
2022-11-09T01:55:18.148Z,100358.02
2022-11-09T01:57:55.025Z,100353.03
2022-11-09T02:00:23.610Z,100345.67
2022-11-09T02:03:04.679Z,100343.56
2022-11-09T02:05:35.401Z,100339.77
2022-11-09T02:08:07.239Z,100337.42
2022-11-09T02:10:55.381Z,100337.30
2022-11-09T02:13:27.058Z,100337.95
2022-11-09T02:15:55.217Z,100336.64
2022-11-09T02:18:23.366Z,100336.39
2022-11-09T02:20:57.372Z,100337.65
2022-11-09T02:23:27.740Z,100338.58
2022-11-09T02:26:08.130Z,100333.84
2022-11-09T02:28:38.829Z,100329.52
2022-11-09T02:31:11.105Z,100330.31
2022-11-09T02:33:54.739Z,100323.90
2022-11-09T02:36:24.140Z,100321.77
2022-11-09T02:38:54.738Z,100319.79
2022-11-09T02:41:24.571Z,100317.70
2022-11-09T02:43:55.179Z,100318.58
2022-11-09T02:46:34.326Z,100319.60
2022-11-09T02:49:03.102Z,100323.95
2022-11-09T02:51:31.246Z,100319.64
2022-11-09T02:53:59.520Z,100323.07
2022-11-09T02:56:28.040Z,100322.31
2022-11-09T02:58:56.536Z,100322.79
2022-11-09T03:01:24.725Z,100322.77
2022-11-09T03:03:52.880Z,100324.08
2022-11-09T03:06:20.932Z,100324.92
2022-11-09T03:08:49.585Z,100320.30
2022-11-09T03:11:18.151Z,100322.20
2022-11-09T03:13:46.299Z,100327.36
2022-11-09T03:16:14.289Z,100328.66
2022-11-09T03:18:42.458Z,100323.98
2022-11-09T03:21:10.685Z,100331.39
2022-11-09T03:23:38.889Z,100330.56
2022-11-09T03:26:07.171Z,100330.73
2022-11-09T03:28:35.305Z,100336.59
2022-11-09T03:31:03.430Z,100333.85
2022-11-09T03:33:31.767Z,100338.06
2022-11-09T03:35:59.935Z,100338.02
2022-11-09T03:38:28.304Z,100332.78
2022-11-09T03:40:56.686Z,100332.74
2022-11-09T03:43:24.820Z,100328.90
2022-11-09T03:45:52.967Z,100331.20
2022-11-09T03:48:21.167Z,100333.16
2022-11-09T03:50:49.436Z,100331.16
2022-11-09T03:53:17.779Z,100334.55
2022-11-09T03:55:46.606Z,100333.53
2022-11-09T03:58:14.728Z,100329.49
2022-11-09T04:00:42.978Z,100329.20
2022-11-09T04:03:11.441Z,100324.20
2022-11-09T04:05:39.475Z,100319.67
2022-11-09T04:08:07.676Z,100318.54
2022-11-09T04:10:35.919Z,100316.55
2022-11-09T04:13:04.074Z,100320.16
2022-11-09T04:15:32.087Z,100314.05
2022-11-09T04:18:02.312Z,100310.64
2022-11-09T04:20:31.664Z,100307.66
2022-11-09T04:23:05.286Z,100302.27
2022-11-09T04:25:37.911Z,100301.67
2022-11-09T04:28:07.829Z,100298.73
2022-11-09T04:30:37.772Z,100303.91
2022-11-09T04:33:06.341Z,100303.35
2022-11-09T04:35:35.336Z,100302.81
2022-11-09T04:38:08.807Z,100304.70
2022-11-09T04:40:37.278Z,100304.08
2022-11-09T04:43:07.851Z,100307.96
2022-11-09T04:45:36.022Z,100308.34
2022-11-09T04:48:06.747Z,100310.80
2022-11-09T04:50:35.036Z,100308.27
2022-11-09T04:53:12.114Z,100308.08
2022-11-09T04:55:41.093Z,100312.32
2022-11-09T04:58:09.514Z,100316.25
2022-11-09T05:00:38.543Z,100308.09
2022-11-09T05:03:07.327Z,100310.11
2022-11-09T05:05:37.361Z,100311.80
2022-11-09T05:08:06.536Z,100312.42
2022-11-09T05:10:36.160Z,100308.45
2022-11-09T05:13:24.167Z,100306.86
2022-11-09T05:15:52.364Z,100305.09
2022-11-09T05:18:20.533Z,100303.39
2022-11-09T05:20:48.676Z,100305.77
2022-11-09T05:23:35.652Z,100303.46
2022-11-09T05:26:04.038Z,100307.73
2022-11-09T05:28:32.294Z,100312.98
2022-11-09T05:31:00.426Z,100308.15
2022-11-09T05:33:28.860Z,100306.97
2022-11-09T05:35:57.959Z,100303.15
2022-11-09T05:38:26.121Z,100299.98
2022-11-09T05:40:54.992Z,100303.48
2022-11-09T05:43:23.198Z,100303.13
2022-11-09T05:45:51.486Z,100306.63
2022-11-09T05:48:20.007Z,100305.20
2022-11-09T05:50:48.183Z,100304.20
2022-11-09T05:53:16.444Z,100309.23
2022-11-09T05:55:44.604Z,100310.67
2022-11-09T05:58:12.858Z,100313.56
2022-11-09T06:00:41.368Z,100314.30
2022-11-09T06:03:11.160Z,100316.28
2022-11-09T06:05:41.164Z,100311.65
2022-11-09T06:08:15.439Z,100315.14
2022-11-09T06:10:43.980Z,100318.84
2022-11-09T06:13:12.658Z,100317.38
2022-11-09T06:15:40.848Z,100319.46
2022-11-09T06:18:09.148Z,100321.23
2022-11-09T06:20:37.938Z,100318.41
2022-11-09T06:23:06.216Z,100316.13
2022-11-09T06:25:34.487Z,100316.00
2022-11-09T06:28:02.687Z,100316.70
2022-11-09T06:30:33.860Z,100322.86
2022-11-09T06:33:03.031Z,100323.66
2022-11-09T06:35:31.143Z,100321.20
2022-11-09T06:38:00.977Z,100321.52
2022-11-09T06:40:29.850Z,100322.38
2022-11-09T06:43:01.586Z,100320.69
2022-11-09T06:45:30.992Z,100322.02
2022-11-09T06:48:04.208Z,100322.17
2022-11-09T06:50:33.888Z,100322.56
2022-11-09T06:53:06.272Z,100326.14
2022-11-09T06:55:35.777Z,100322.54
2022-11-09T06:58:09.633Z,100320.96
2022-11-09T07:00:38.331Z,100318.17
2022-11-09T07:03:06.547Z,100319.24
2022-11-09T07:05:40.256Z,100314.42
2022-11-09T07:08:08.539Z,100316.41
2022-11-09T07:10:37.138Z,100313.38
2022-11-09T07:13:07.378Z,100311.38
2022-11-09T07:15:37.412Z,100310.58
2022-11-09T07:18:08.169Z,100310.77
2022-11-09T07:20:37.296Z,100312.16
2022-11-09T07:23:05.429Z,100316.34
2022-11-09T07:25:33.981Z,100317.56
2022-11-09T07:28:08.712Z,100310.52
2022-11-09T07:30:37.408Z,100311.02
2022-11-09T07:33:14.768Z,100310.11
2022-11-09T07:35:43.048Z,100315.09
2022-11-09T07:38:11.485Z,100315.22
2022-11-09T07:40:40.886Z,100313.34
2022-11-09T07:43:10.833Z,100313.09
2022-11-09T07:45:39.411Z,100315.15
2022-11-09T07:48:10.625Z,100316.20
2022-11-09T07:50:40.732Z,100318.29
2022-11-09T07:53:12.980Z,100315.40
2022-11-09T07:55:42.193Z,100318.30
2022-11-09T07:58:15.855Z,100315.48
2022-11-09T08:00:44.544Z,100314.79
2022-11-09T08:03:12.753Z,100312.05
2022-11-09T08:05:41.268Z,100311.55
2022-11-09T08:08:12.224Z,100313.81
2022-11-09T08:10:40.811Z,100311.02
2022-11-09T08:13:14.299Z,100315.39
2022-11-09T08:15:42.866Z,100313.16
2022-11-09T08:18:17.651Z,100311.45
2022-11-09T08:20:46.886Z,100312.67
2022-11-09T08:23:17.196Z,100305.77
2022-11-09T08:25:45.518Z,100308.84
2022-11-09T08:28:16.257Z,100312.52
2022-11-09T08:30:45.900Z,100308.20
2022-11-09T08:33:14.402Z,100314.03
2022-11-09T08:35:42.612Z,100306.96
2022-11-09T08:38:11.004Z,100307.27
2022-11-09T08:40:39.214Z,100306.94
2022-11-09T08:43:08.846Z,100307.27
2022-11-09T08:45:38.968Z,100308.60
2022-11-09T08:48:09.689Z,100305.02
2022-11-09T08:50:38.004Z,100303.37
2022-11-09T08:53:08.455Z,100301.46
2022-11-09T08:55:37.112Z,100297.84
2022-11-09T08:58:05.301Z,100297.16
2022-11-09T09:00:33.564Z,100303.45
2022-11-09T09:03:07.724Z,100303.39
2022-11-09T09:05:37.419Z,100300.95
2022-11-09T09:08:07.529Z,100301.33
2022-11-09T09:10:35.747Z,100309.14
2022-11-09T09:13:04.616Z,100300.99
2022-11-09T09:15:33.132Z,100303.33
2022-11-09T09:18:02.930Z,100302.29
2022-11-09T09:20:31.918Z,100306.12
2022-11-09T09:23:01.137Z,100301.31
2022-11-09T09:25:29.611Z,100303.81
2022-11-09T09:27:58.253Z,100303.56
2022-11-09T09:30:26.879Z,100311.67
2022-11-09T09:33:02.061Z,100314.14
2022-11-09T09:35:30.259Z,100318.27
2022-11-09T09:37:58.710Z,100318.46
2022-11-09T09:40:55.636Z,100320.17
2022-11-09T09:43:46.849Z,100319.88
2022-11-09T09:46:17.989Z,100316.03
2022-11-09T09:48:51.900Z,100314.45
2022-11-09T09:51:26.629Z,100317.98
2022-11-09T09:54:01.895Z,100319.44
2022-11-09T09:56:39.050Z,100324.70
2022-11-09T09:59:33.819Z,100331.27
2022-11-09T10:02:02.355Z,100324.09
2022-11-09T10:04:38.498Z,100321.92
2022-11-09T10:07:27.367Z,100314.23
2022-11-09T10:10:22.051Z,100309.33
2022-11-09T10:13:09.059Z,100309.07
2022-11-09T10:15:53.414Z,100306.54
2022-11-09T10:18:55.993Z,100308.34
2022-11-09T10:21:48.127Z,100302.80
2022-11-09T10:24:36.875Z,100297.34
2022-11-09T10:27:43.394Z,100301.29
2022-11-09T10:30:18.059Z,100304.14
2022-11-09T10:32:51.959Z,100303.54
2022-11-09T10:35:25.609Z,100304.50
2022-11-09T10:37:55.414Z,100306.61
2022-11-09T10:40:26.672Z,100303.85
2022-11-09T10:43:07.789Z,100301.84
2022-11-09T10:45:38.801Z,100299.94
2022-11-09T10:48:10.939Z,100293.34
2022-11-09T10:50:48.496Z,100291.64
2022-11-09T10:53:24.068Z,100292.36
2022-11-09T10:56:20.716Z,100293.39
2022-11-09T10:58:53.111Z,100296.68
2022-11-09T11:01:25.635Z,100297.87
2022-11-09T11:03:57.795Z,100287.06
2022-11-09T11:06:26.001Z,100285.36
2022-11-09T11:09:06.214Z,100288.05
2022-11-09T11:11:37.383Z,100288.48
2022-11-09T11:14:23.337Z,100292.64
2022-11-09T11:16:53.381Z,100287.77
2022-11-09T11:19:41.956Z,100283.39
2022-11-09T11:22:19.629Z,100283.70
2022-11-09T11:24:55.487Z,100279.44
2022-11-09T11:27:49.997Z,100277.98
2022-11-09T11:30:36.701Z,100279.86
2022-11-09T11:33:19.289Z,100282.19
2022-11-09T11:36:04.880Z,100282.36
2022-11-09T11:38:48.866Z,100282.23
2022-11-09T11:41:28.823Z,100283.05
2022-11-09T11:44:31.546Z,100276.94
2022-11-09T11:47:15.279Z,100276.41
2022-11-09T11:49:54.361Z,100275.30
2022-11-09T11:52:40.456Z,100270.73
2022-11-09T11:55:42.877Z,100276.55
2022-11-09T11:58:29.123Z,100273.11
2022-11-09T12:01:16.208Z,100279.30
2022-11-09T12:04:11.740Z,100279.88
2022-11-09T12:07:15.031Z,100280.63
2022-11-09T12:09:58.310Z,100280.56
2022-11-09T12:12:44.211Z,100278.93
2022-11-09T12:15:51.036Z,100282.55
2022-11-09T12:18:31.160Z,100289.31
2022-11-09T12:21:29.112Z,100294.29
2022-11-09T12:24:21.638Z,100289.41
2022-11-09T12:27:31.682Z,100292.90
2022-11-09T12:30:22.530Z,100283.19
2022-11-09T12:33:11.527Z,100276.66
2022-11-09T12:36:16.543Z,100275.93
2022-11-09T12:39:11.295Z,100269.80
2022-11-09T12:41:40.917Z,100269.39
2022-11-09T12:45:00.170Z,100264.03
2022-11-09T12:47:36.137Z,100265.09
2022-11-09T12:50:05.893Z,100262.77
2022-11-09T12:52:34.621Z,100257.41
2022-11-09T12:55:05.458Z,100260.74
2022-11-09T12:57:33.860Z,100263.36
2022-11-09T13:00:02.220Z,100254.84
2022-11-09T13:02:35.284Z,100253.85
2022-11-09T13:05:07.961Z,100260.34
2022-11-09T13:07:46.109Z,100269.15
2022-11-09T13:10:36.472Z,100270.00
2022-11-09T13:13:07.566Z,100272.27
2022-11-09T13:15:38.218Z,100278.31
2022-11-09T13:18:26.783Z,100280.02
2022-11-09T13:20:57.108Z,100277.58
2022-11-09T13:26:31.907Z,100282.59
2022-11-09T13:29:15.143Z,100286.83
2022-11-09T13:32:22.571Z,100286.33
2022-11-09T13:34:55.767Z,100277.23
2022-11-09T13:37:42.110Z,100272.11
2022-11-09T13:40:32.298Z,100267.24
2022-11-09T13:43:00.432Z,100266.01
2022-11-09T13:45:46.554Z,100267.08
2022-11-09T13:48:22.520Z,100271.19
2022-11-09T13:50:56.833Z,100267.65
2022-11-09T13:53:37.186Z,100271.77
2022-11-09T13:56:32.727Z,100274.02
2022-11-09T13:59:07.827Z,100275.69
2022-11-09T14:01:46.385Z,100274.13
2022-11-09T14:04:40.474Z,100269.02
2022-11-09T14:07:31.529Z,100271.16
2022-11-09T14:10:24.411Z,100275.71
2022-11-09T14:13:17.457Z,100273.78
2022-11-09T14:15:45.496Z,100273.27
2022-11-09T14:18:24.397Z,100274.71
2022-11-09T14:21:33.985Z,100275.05
2022-11-09T14:24:24.953Z,100274.48
2022-11-09T14:27:23.140Z,100276.91
2022-11-09T14:29:56.737Z,100280.60
2022-11-09T14:32:27.022Z,100280.80
2022-11-09T14:35:34.263Z,100284.06
2022-11-09T14:38:17.470Z,100292.55
2022-11-09T14:40:48.156Z,100292.11
2022-11-09T14:43:34.638Z,100294.44
2022-11-09T14:46:21.066Z,100295.08
2022-11-09T14:48:53.910Z,100296.85
2022-11-09T14:51:32.554Z,100299.03
2022-11-09T14:54:01.973Z,100296.64
2022-11-09T14:56:31.348Z,100296.05
2022-11-09T14:59:06.477Z,100294.19
2022-11-09T15:01:34.467Z,100298.73
2022-11-09T15:04:13.696Z,100296.52
2022-11-09T15:06:55.402Z,100297.81
2022-11-09T15:09:33.178Z,100296.92
2022-11-09T15:12:02.640Z,100296.46
2022-11-09T15:14:34.558Z,100297.04
2022-11-09T15:17:28.068Z,100295.71
2022-11-09T15:19:58.394Z,100290.64
2022-11-09T15:22:53.802Z,100293.98
2022-11-09T15:25:31.229Z,100292.40
2022-11-09T15:28:02.263Z,100289.73
2022-11-09T15:30:32.561Z,100285.89
2022-11-09T15:33:01.396Z,100288.17
2022-11-09T15:35:29.570Z,100289.05
2022-11-09T15:37:57.727Z,100288.11
2022-11-09T15:40:26.015Z,100280.92
2022-11-09T15:42:54.248Z,100280.45
2022-11-09T15:45:22.507Z,100278.41
2022-11-09T15:47:55.659Z,100275.05
2022-11-09T15:50:26.906Z,100277.60
2022-11-09T15:52:55.174Z,100279.35
2022-11-09T15:55:23.770Z,100280.73
2022-11-09T15:57:55.231Z,100279.85
2022-11-09T16:00:23.418Z,100281.55
2022-11-09T16:02:51.618Z,100285.40
2022-11-09T16:05:20.292Z,100290.68
2022-11-09T16:07:54.227Z,100292.42
2022-11-09T16:10:27.805Z,100293.50
2022-11-09T16:12:57.666Z,100285.92
2022-11-09T16:15:26.897Z,100283.77
2022-11-09T16:17:55.086Z,100277.31
2022-11-09T16:20:23.172Z,100275.86
2022-11-09T16:22:51.381Z,100279.51
2022-11-09T16:25:20.052Z,100281.43
2022-11-09T16:27:50.872Z,100277.91
2022-11-09T16:30:20.757Z,100276.55
2022-11-09T16:32:48.796Z,100271.21
2022-11-09T16:35:27.383Z,100275.39
2022-11-09T16:37:58.788Z,100277.91
2022-11-09T16:40:29.371Z,100276.30
2022-11-09T16:42:59.505Z,100273.91
2022-11-09T16:45:32.127Z,100271.09
2022-11-09T16:48:05.906Z,100277.87
2022-11-09T16:50:34.108Z,100280.29
2022-11-09T16:53:02.336Z,100283.27
2022-11-09T16:55:30.644Z,100284.36
2022-11-09T16:57:59.762Z,100283.85
2022-11-09T17:00:42.760Z,100284.00
2022-11-09T17:03:17.236Z,100284.43
2022-11-09T17:05:46.150Z,100287.34
2022-11-09T17:08:15.385Z,100290.31
2022-11-09T17:10:46.930Z,100286.67
2022-11-09T17:13:15.558Z,100284.30
2022-11-09T17:15:46.238Z,100280.32
2022-11-09T17:18:15.596Z,100274.17
2022-11-09T17:20:51.422Z,100274.83
2022-11-09T17:23:20.295Z,100279.64
2022-11-09T17:26:04.003Z,100281.48
2022-11-09T17:28:32.824Z,100282.03
2022-11-09T17:31:07.621Z,100280.04
2022-11-09T17:33:36.231Z,100285.48
2022-11-09T17:36:07.646Z,100285.52
2022-11-09T17:38:36.283Z,100284.86
2022-11-09T17:41:08.214Z,100287.71
2022-11-09T17:43:38.450Z,100286.05
2022-11-09T17:46:13.895Z,100286.43
2022-11-09T17:48:43.941Z,100278.15
2022-11-09T17:51:14.076Z,100275.67
2022-11-09T17:53:42.819Z,100279.23
2022-11-09T17:56:11.688Z,100278.81
2022-11-09T17:58:42.681Z,100277.22
2022-11-09T18:01:16.428Z,100274.30
2022-11-09T18:03:44.794Z,100276.70
2022-11-09T18:06:19.686Z,100280.15
2022-11-09T18:09:10.859Z,100278.30
2022-11-09T18:11:37.446Z,100282.58
2022-11-09T18:14:05.874Z,100285.89
2022-11-09T18:16:34.113Z,100287.03
2022-11-09T18:19:03.787Z,100285.73
2022-11-09T18:21:33.771Z,100283.45
2022-11-09T18:24:05.246Z,100285.48
2022-11-09T18:26:33.446Z,100285.09
2022-11-09T18:29:01.633Z,100283.59
2022-11-09T18:31:29.978Z,100283.38
2022-11-09T18:33:58.196Z,100284.11
2022-11-09T18:36:28.136Z,100287.16
2022-11-09T18:38:56.456Z,100288.32
2022-11-09T18:41:25.346Z,100288.17
2022-11-09T18:43:54.516Z,100284.19
2022-11-09T18:46:22.792Z,100283.36
2022-11-09T18:48:52.398Z,100287.17
2022-11-09T18:51:21.082Z,100290.58
2022-11-09T18:53:49.972Z,100286.19
2022-11-09T18:56:24.299Z,100288.88
2022-11-09T18:58:54.798Z,100291.39
2022-11-09T19:01:26.001Z,100296.50
2022-11-09T19:03:59.564Z,100297.23
2022-11-09T19:06:28.807Z,100296.50
2022-11-09T19:09:15.959Z,100295.19
2022-11-09T19:11:44.159Z,100298.34
2022-11-09T19:14:12.438Z,100301.10
2022-11-09T19:16:40.603Z,100303.16
2022-11-09T19:19:13.457Z,100301.81
2022-11-09T19:21:56.098Z,100306.23
2022-11-09T19:24:34.078Z,100310.13
2022-11-09T19:27:02.343Z,100315.11
2022-11-09T19:29:30.597Z,100313.39
2022-11-09T19:31:59.453Z,100310.03
2022-11-09T19:34:27.639Z,100315.98
2022-11-09T19:36:55.742Z,100314.39
2022-11-09T19:39:24.067Z,100313.58
2022-11-09T19:41:52.157Z,100316.66
2022-11-09T19:44:20.488Z,100319.45
2022-11-09T19:46:48.734Z,100321.59
2022-11-09T19:49:16.916Z,100326.38
2022-11-09T19:51:44.958Z,100319.96
2022-11-09T19:54:14.086Z,100315.10
2022-11-09T19:56:42.655Z,100316.29
2022-11-09T19:59:14.877Z,100313.08
2022-11-09T20:01:43.616Z,100311.53
2022-11-09T20:04:12.447Z,100309.28
2022-11-09T20:06:41.184Z,100306.17
2022-11-09T20:09:09.506Z,100302.60
2022-11-09T20:11:57.999Z,100300.95
2022-11-09T20:14:26.259Z,100302.30
2022-11-09T20:16:55.481Z,100302.05
2022-11-09T20:19:25.746Z,100305.25
2022-11-09T20:21:54.011Z,100308.92
2022-11-09T20:24:22.261Z,100305.20
2022-11-09T20:26:50.487Z,100305.57
2022-11-09T20:29:18.688Z,100312.62
2022-11-09T20:31:46.839Z,100313.14
2022-11-09T20:34:15.080Z,100312.45
2022-11-09T20:36:43.322Z,100313.66
2022-11-09T20:39:11.612Z,100314.53
2022-11-09T20:41:39.853Z,100314.83
2022-11-09T20:44:08.366Z,100313.07
2022-11-09T20:46:37.083Z,100310.29
2022-11-09T20:49:05.643Z,100309.42
2022-11-09T20:51:34.087Z,100307.45
2022-11-09T20:54:06.893Z,100315.30
2022-11-09T20:56:36.775Z,100317.19
2022-11-09T20:59:05.099Z,100313.47
2022-11-09T21:01:33.467Z,100312.05
2022-11-09T21:04:02.240Z,100309.03
2022-11-09T21:06:31.432Z,100309.43
2022-11-09T21:09:01.443Z,100303.45
2022-11-09T21:11:35.877Z,100299.71
2022-11-09T21:14:04.284Z,100297.52
2022-11-09T21:16:32.581Z,100297.64
2022-11-09T21:19:00.596Z,100295.29
2022-11-09T21:21:35.100Z,100297.66
2022-11-09T21:24:23.805Z,100299.95
2022-11-09T21:27:10.580Z,100296.13
2022-11-09T21:29:50.736Z,100299.48
2022-11-09T21:32:30.965Z,100298.30
2022-11-09T21:34:59.086Z,100300.70
2022-11-09T21:37:27.325Z,100294.52
2022-11-09T21:39:55.535Z,100295.97
2022-11-09T21:42:23.671Z,100297.29
2022-11-09T21:44:51.720Z,100300.36
2022-11-09T21:47:20.101Z,100305.45
2022-11-09T21:49:48.274Z,100304.83
2022-11-09T21:52:16.951Z,100306.70
2022-11-09T21:54:45.226Z,100305.45
2022-11-09T21:57:13.413Z,100304.65
2022-11-09T21:59:41.622Z,100301.09
2022-11-09T22:02:11.188Z,100304.64
2022-11-09T22:04:39.476Z,100300.66
2022-11-09T22:07:07.807Z,100302.25
2022-11-09T22:10:06.129Z,100307.78
2022-11-09T22:12:43.613Z,100306.04
2022-11-09T22:15:30.826Z,100305.98
2022-11-09T22:17:59.062Z,100302.55
2022-11-09T22:20:45.903Z,100303.33
2022-11-09T22:23:14.135Z,100300.80
2022-11-09T22:25:47.761Z,100300.54
2022-11-09T22:28:16.799Z,100301.96
2022-11-09T22:30:44.887Z,100299.98
2022-11-09T22:33:13.124Z,100297.38
2022-11-09T22:35:41.298Z,100298.49
2022-11-09T22:38:09.636Z,100299.98
2022-11-09T22:40:37.598Z,100302.98
2022-11-09T22:43:05.956Z,100305.13
2022-11-09T22:45:34.398Z,100305.27
2022-11-09T22:48:02.879Z,100302.89
2022-11-09T22:50:31.357Z,100308.73
2022-11-09T22:53:03.708Z,100305.43
2022-11-09T22:55:32.829Z,100302.15
2022-11-09T22:58:01.422Z,100300.91
2022-11-09T23:00:29.888Z,100301.14
2022-11-09T23:02:58.575Z,100302.04
2022-11-09T23:05:27.066Z,100305.52
2022-11-09T23:07:56.010Z,100307.96
2022-11-09T23:10:24.429Z,100307.94
2022-11-09T23:12:52.701Z,100305.94
2022-11-09T23:15:21.293Z,100300.13
2022-11-09T23:18:08.242Z,100297.69
2022-11-09T23:20:36.357Z,100299.98
2022-11-09T23:23:04.490Z,100304.72
2022-11-09T23:25:52.178Z,100303.55
2022-11-09T23:28:20.862Z,100301.10
2022-11-09T23:30:49.442Z,100301.96
2022-11-09T23:33:17.611Z,100301.63
2022-11-09T23:35:45.797Z,100304.69
2022-11-09T23:38:13.963Z,100309.37
2022-11-09T23:40:42.683Z,100309.73
2022-11-09T23:43:14.777Z,100316.41
2022-11-09T23:45:43.299Z,100315.62
2022-11-09T23:48:19.745Z,100324.08
2022-11-09T23:50:48.346Z,100329.05
2022-11-09T23:53:16.727Z,100335.02
2022-11-09T23:55:45.751Z,100330.48
2022-11-09T23:58:14.299Z,100326.77
